createdAt,value
2018-11-02T00:01:06.545Z,3.17
2018-11-02T00:03:34.139Z,4.00
2018-11-02T00:06:02.524Z,2.20
2018-11-02T00:08:30.024Z,2.63
2018-11-02T00:10:57.608Z,2.67
2018-11-02T00:13:25.163Z,3.70
2018-11-02T00:15:53.729Z,4.23
2018-11-02T00:18:21.599Z,4.70
2018-11-02T00:20:49.162Z,2.50
2018-11-02T00:23:16.745Z,8.73
2018-11-02T00:25:44.292Z,2.40
2018-11-02T00:28:11.849Z,2.50
2018-11-02T00:30:39.440Z,2.17
2018-11-02T00:33:07.003Z,2.60
2018-11-02T00:35:34.544Z,2.37
2018-11-02T00:38:02.609Z,1.70
2018-11-02T00:40:30.167Z,3.10
2018-11-02T00:42:57.731Z,3.20
2018-11-02T00:45:25.311Z,2.45
2018-11-02T00:47:52.869Z,2.90
2018-11-02T00:50:20.449Z,3.20
2018-11-02T00:52:48.784Z,4.53
2018-11-02T00:55:17.543Z,2.37
2018-11-02T00:57:45.108Z,1.80
2018-11-02T01:00:12.660Z,3.70
2018-11-02T01:02:40.252Z,3.63
2018-11-02T01:05:07.782Z,5.20
2018-11-02T01:07:35.725Z,5.10
2018-11-02T01:10:03.245Z,3.70
2018-11-02T01:12:30.811Z,3.50
2018-11-02T01:14:58.395Z,5.47
2018-11-02T01:17:25.960Z,3.73
2018-11-02T01:19:53.646Z,5.07
2018-11-02T01:22:21.135Z,5.80
2018-11-02T01:24:48.698Z,5.67
2018-11-02T01:27:16.284Z,6.03
2018-11-02T01:29:43.847Z,7.33
2018-11-02T01:32:11.406Z,7.03
2018-11-02T01:34:39.014Z,9.47
2018-11-02T01:37:07.649Z,6.57
2018-11-02T01:39:35.206Z,6.30
2018-11-02T01:42:02.793Z,7.97
2018-11-02T01:44:30.349Z,7.10
2018-11-02T01:46:57.914Z,8.17
2018-11-02T01:49:26.280Z,6.73
2018-11-02T01:51:53.831Z,8.88
2018-11-02T01:54:21.388Z,8.20
2018-11-02T01:56:48.978Z,9.03
2018-11-02T01:59:16.543Z,10.33
2018-11-02T02:01:44.107Z,7.87
2018-11-02T02:04:11.683Z,8.67
2018-11-02T02:06:40.020Z,9.73
2018-11-02T02:09:07.570Z,11.50
2018-11-02T02:11:35.187Z,13.13
2018-11-02T02:14:03.503Z,9.23
2018-11-02T02:16:31.061Z,10.80
2018-11-02T02:18:58.646Z,9.07
2018-11-02T02:21:26.208Z,10.83
2018-11-02T02:23:54.084Z,11.27
2018-11-02T02:26:22.046Z,12.07
2018-11-02T02:28:49.606Z,11.03
2018-11-02T02:31:17.175Z,12.87
2018-11-02T02:33:44.789Z,11.03
2018-11-02T02:36:12.340Z,9.83
2018-11-02T02:38:39.896Z,10.27
2018-11-02T02:41:07.589Z,9.30
2018-11-02T02:43:35.157Z,10.40
2018-11-02T02:46:02.701Z,10.47
2018-11-02T02:48:30.352Z,10.67
2018-11-02T02:50:57.912Z,13.67
2018-11-02T02:53:26.290Z,9.93
2018-11-02T02:55:53.851Z,12.10
2018-11-02T02:58:22.177Z,10.80
2018-11-02T03:00:49.776Z,10.53
2018-11-02T03:03:17.339Z,10.93
2018-11-02T03:05:44.895Z,11.73
2018-11-02T03:08:12.487Z,14.17
2018-11-02T03:10:40.850Z,15.33
2018-11-02T03:13:08.412Z,13.50
2018-11-02T03:15:35.974Z,12.57
2018-11-02T03:18:04.290Z,14.37
2018-11-02T03:20:31.890Z,12.33
2018-11-02T03:22:59.445Z,12.77
2018-11-02T03:25:27.025Z,11.37
2018-11-02T03:27:54.595Z,13.37
2018-11-02T03:30:22.925Z,11.97
2018-11-02T03:32:51.122Z,14.03
2018-11-02T03:35:18.687Z,12.13
2018-11-02T03:37:46.249Z,16.37
2018-11-02T03:40:13.833Z,16.50
2018-11-02T03:42:42.158Z,16.85
2018-11-02T03:45:09.753Z,15.67
2018-11-02T03:47:37.310Z,13.27
2018-11-02T03:50:05.444Z,11.67
2018-11-02T03:52:33.033Z,11.10
2018-11-02T03:55:00.600Z,12.00
2018-11-02T03:57:28.209Z,12.13
2018-11-02T03:59:56.550Z,17.57
2018-11-02T04:02:24.101Z,15.17
2018-11-02T04:04:51.960Z,12.03
2018-11-02T04:07:19.517Z,12.63
2018-11-02T04:09:47.132Z,13.97
2018-11-02T04:12:14.673Z,16.67
2018-11-02T04:14:42.512Z,14.23
2018-11-02T04:17:10.115Z,17.23
2018-11-02T04:19:38.449Z,14.07
2018-11-02T04:22:06.002Z,12.87
2018-11-02T04:24:33.584Z,11.73
2018-11-02T04:27:01.147Z,10.87
2018-11-02T04:29:28.748Z,14.13
2018-11-02T04:31:57.067Z,12.50
2018-11-02T04:34:24.624Z,13.67
2018-11-02T04:36:52.711Z,11.83
2018-11-02T04:39:20.280Z,13.37
2018-11-02T04:41:47.874Z,18.73
2018-11-02T04:44:15.452Z,16.67
2018-11-02T04:46:43.804Z,15.85
2018-11-02T04:49:11.363Z,11.97
2018-11-02T04:51:38.915Z,14.90
2018-11-02T04:54:06.497Z,13.17
2018-11-02T04:56:34.065Z,13.53
2018-11-02T04:59:02.403Z,12.97
2018-11-02T05:01:30.029Z,10.63
2018-11-02T05:03:57.582Z,13.77
2018-11-02T05:06:25.193Z,11.27
2018-11-02T05:08:52.736Z,14.13
2018-11-02T05:11:20.350Z,9.87
2018-11-02T05:13:47.890Z,11.53
2018-11-02T05:16:15.734Z,17.40
2018-11-02T05:18:43.301Z,13.03
2018-11-02T05:21:10.961Z,13.30
2018-11-02T05:23:38.446Z,13.87
2018-11-02T05:26:06.394Z,13.10
2018-11-02T05:28:33.958Z,13.70
2018-11-02T05:31:01.530Z,13.00
2018-11-02T05:33:29.107Z,16.73
2018-11-02T05:35:56.658Z,13.30
2018-11-02T05:38:24.218Z,16.83
2018-11-02T05:40:51.801Z,13.87
2018-11-02T05:43:20.130Z,14.47
2018-11-02T05:45:47.750Z,14.47
2018-11-02T05:48:16.073Z,13.10
2018-11-02T05:50:43.634Z,12.63
2018-11-02T05:53:11.234Z,13.37
2018-11-02T05:55:38.795Z,13.97
2018-11-02T05:58:06.380Z,22.70
2018-11-02T06:00:34.712Z,17.63
2018-11-02T06:03:02.277Z,13.97
2018-11-02T06:05:29.860Z,13.80
2018-11-02T06:07:57.509Z,16.00
2018-11-02T06:10:26.277Z,15.27
2018-11-02T06:12:53.840Z,12.17
2018-11-02T06:15:21.402Z,16.33
2018-11-02T06:17:49.063Z,16.30
2018-11-02T06:20:16.551Z,14.40
2018-11-02T06:22:44.142Z,17.48
2018-11-02T06:25:12.467Z,13.83
2018-11-02T06:27:40.050Z,12.80
2018-11-02T06:30:07.618Z,12.90
2018-11-02T06:32:35.277Z,14.65
2018-11-02T06:35:02.832Z,25.43
2018-11-02T06:37:30.398Z,22.30
2018-11-02T06:39:57.988Z,23.35
2018-11-02T06:42:26.309Z,19.23
2018-11-02T06:44:55.003Z,17.43
2018-11-02T06:47:22.464Z,15.07
2018-11-02T06:49:50.029Z,17.23
2018-11-02T06:52:17.616Z,13.63
2018-11-02T06:54:45.175Z,14.27
2018-11-02T06:57:12.787Z,14.60
2018-11-02T06:59:40.548Z,23.57
2018-11-02T07:02:07.933Z,16.63
2018-11-02T07:04:35.529Z,15.30
2018-11-02T07:07:03.921Z,13.90
2018-11-02T07:09:31.433Z,17.63
2018-11-02T07:11:59.162Z,15.73
2018-11-02T07:14:27.065Z,15.97
2018-11-02T07:16:55.450Z,16.17
2018-11-02T07:19:23.018Z,20.53
2018-11-02T07:21:50.580Z,14.90
2018-11-02T07:24:18.178Z,19.50
2018-11-02T07:26:46.512Z,20.40
2018-11-02T07:29:14.380Z,18.97
2018-11-02T07:31:41.965Z,14.83
2018-11-02T07:34:09.942Z,13.33
2018-11-02T07:36:38.083Z,15.50
2018-11-02T07:39:05.644Z,15.67
2018-11-02T07:41:33.211Z,14.87
2018-11-02T07:44:12.073Z,18.25
2018-11-02T07:46:39.625Z,20.02
2018-11-02T07:49:07.198Z,19.00
2018-11-02T07:51:35.578Z,15.37
2018-11-02T07:54:03.136Z,15.47
2018-11-02T07:56:31.466Z,17.93
2018-11-02T07:59:00.269Z,15.60
2018-11-02T08:01:27.838Z,16.87
2018-11-02T08:03:55.408Z,17.43
2018-11-02T08:06:23.003Z,15.93
2018-11-02T08:08:51.367Z,19.12
2018-11-02T08:11:19.982Z,18.23
2018-11-02T08:13:47.490Z,17.75
2018-11-02T08:16:15.059Z,21.05
2018-11-02T08:18:42.667Z,17.23
2018-11-02T08:21:10.983Z,15.87
2018-11-02T08:23:38.633Z,18.80
2018-11-02T08:26:06.215Z,22.03
2018-11-02T08:28:33.769Z,21.45
2018-11-02T08:31:02.303Z,18.65
2018-11-02T08:33:29.865Z,21.58
2018-11-02T08:35:57.431Z,17.60
2018-11-02T08:38:25.053Z,15.80
2018-11-02T08:40:52.610Z,16.60
2018-11-02T08:43:20.189Z,17.47
2018-11-02T08:45:48.570Z,21.27
2018-11-02T08:48:16.903Z,11.60
2018-11-02T08:50:44.455Z,7.23
2018-11-02T08:53:12.100Z,6.07
2018-11-02T08:55:39.694Z,5.70
2018-11-02T08:58:07.450Z,7.23
2018-11-02T09:00:35.534Z,3.57
2018-11-02T09:03:03.098Z,7.70
2018-11-02T09:05:30.657Z,5.22
2018-11-02T09:07:58.272Z,5.57
2018-11-02T09:10:25.833Z,5.53
2018-11-02T09:12:54.154Z,4.10
2018-11-02T09:15:22.137Z,4.97
2018-11-02T09:17:49.696Z,6.63
2018-11-02T09:20:17.260Z,5.70
2018-11-02T09:22:45.221Z,4.07
2018-11-02T09:25:12.778Z,5.00
2018-11-02T09:27:40.337Z,4.63
2018-11-02T09:30:08.428Z,4.37
2018-11-02T09:32:35.997Z,4.70
2018-11-02T09:35:03.563Z,5.87
2018-11-02T09:37:31.209Z,7.72
2018-11-02T09:39:59.071Z,7.30
2018-11-02T09:42:27.142Z,7.60
2018-11-02T09:44:54.654Z,9.70
2018-11-02T09:47:22.213Z,4.80
2018-11-02T09:49:50.550Z,7.37
2018-11-02T09:52:18.199Z,7.83
2018-11-02T09:54:46.516Z,5.53
2018-11-02T09:57:14.052Z,8.07
2018-11-02T09:59:41.658Z,6.57
2018-11-02T10:02:10.049Z,6.60
2018-11-02T10:04:38.167Z,6.07
2018-11-02T10:07:06.762Z,5.33
2018-11-02T10:09:34.324Z,12.30
2018-11-02T10:12:01.901Z,4.87
2018-11-02T10:14:30.020Z,6.17
2018-11-02T10:16:57.588Z,6.83
2018-11-02T10:19:25.135Z,3.87
2018-11-02T10:21:52.719Z,4.77
2018-11-02T10:24:20.272Z,5.23
2018-11-02T10:26:49.082Z,4.97
2018-11-02T10:29:16.647Z,7.77
2018-11-02T10:31:44.421Z,7.93
2018-11-02T10:34:12.028Z,5.97
2018-11-02T10:36:40.352Z,4.33
2018-11-02T10:39:07.907Z,6.37
2018-11-02T10:41:35.532Z,5.30
2018-11-02T10:44:03.095Z,5.17
2018-11-02T10:46:30.651Z,5.20
2018-11-02T10:48:58.233Z,8.93
2018-11-02T10:51:25.784Z,5.80
2018-11-02T10:53:53.339Z,7.30
2018-11-02T10:56:22.825Z,7.80
2018-11-02T10:58:50.334Z,6.47
2018-11-02T11:01:17.936Z,5.53
2018-11-02T11:03:46.891Z,8.00
2018-11-02T11:06:14.445Z,8.13
2018-11-02T11:08:41.998Z,7.53
2018-11-02T11:11:10.708Z,8.83
2018-11-02T11:13:38.694Z,6.50
2018-11-02T11:16:05.845Z,6.73
2018-11-02T11:18:33.455Z,8.23
2018-11-02T11:21:01.065Z,8.95
2018-11-02T11:23:29.324Z,9.97
2018-11-02T11:25:56.932Z,8.63
2018-11-02T11:28:25.257Z,14.13
2018-11-02T11:30:52.828Z,13.90
2018-11-02T11:33:20.477Z,13.70
2018-11-02T11:35:48.043Z,16.20
2018-11-02T11:38:15.602Z,13.57
2018-11-02T11:40:43.213Z,14.77
2018-11-02T11:43:10.768Z,15.53
2018-11-02T11:45:38.337Z,15.53
2018-11-02T11:48:05.957Z,16.10
2018-11-02T11:50:33.522Z,15.60
2018-11-02T11:53:01.093Z,15.83
2018-11-02T11:55:28.686Z,16.20
2018-11-02T11:57:56.248Z,15.67
2018-11-02T12:00:23.815Z,14.70
2018-11-02T12:02:52.675Z,16.77
2018-11-02T12:05:20.251Z,15.60
2018-11-02T12:07:47.808Z,18.45
2018-11-02T12:10:15.451Z,17.58
2018-11-02T12:12:42.999Z,15.87
2018-11-02T12:15:10.565Z,14.07
2018-11-02T12:17:38.755Z,16.67
2018-11-02T12:20:06.323Z,18.63
2018-11-02T12:22:33.887Z,22.50
2018-11-02T12:25:01.725Z,20.58
2018-11-02T12:27:29.298Z,17.13
2018-11-02T12:29:56.867Z,16.43
2018-11-02T12:32:24.474Z,20.43
2018-11-02T12:34:52.803Z,20.13
2018-11-02T12:37:20.357Z,18.43
2018-11-02T12:39:47.973Z,19.00
2018-11-02T12:42:16.302Z,19.10
2018-11-02T12:44:43.865Z,17.70
2018-11-02T12:47:11.451Z,16.53
2018-11-02T12:49:39.328Z,14.70
2018-11-02T12:52:06.636Z,18.90
2018-11-02T12:54:34.194Z,16.50
2018-11-02T12:57:01.757Z,14.57
2018-11-02T12:59:29.372Z,15.97
2018-11-02T13:01:56.938Z,17.87
2018-11-02T13:04:24.488Z,15.90
2018-11-02T13:06:52.102Z,14.53
2018-11-02T13:11:47.225Z,17.00
2018-11-02T13:14:15.632Z,15.37
2018-11-02T13:16:43.199Z,16.83
2018-11-02T13:19:10.767Z,18.27
2018-11-02T13:21:38.425Z,17.57
2018-11-02T13:24:06.685Z,18.33
2018-11-02T13:26:34.987Z,22.13
2018-11-02T13:29:02.536Z,16.57
2018-11-02T13:31:30.192Z,19.90
2018-11-02T13:33:57.704Z,16.27
2018-11-02T13:36:26.113Z,16.17
2018-11-02T13:38:53.604Z,21.17
2018-11-02T13:41:21.245Z,15.80
2018-11-02T13:43:48.933Z,16.97
2018-11-02T13:46:16.375Z,17.20
2018-11-02T13:48:44.013Z,17.60
2018-11-02T13:51:11.569Z,20.93
2018-11-02T13:53:39.185Z,18.50
2018-11-02T13:56:06.741Z,15.80
2018-11-02T13:58:34.310Z,19.03
2018-11-02T14:01:01.873Z,16.53
2018-11-02T14:03:30.427Z,17.83
2018-11-02T14:05:57.987Z,16.57
2018-11-02T14:08:25.552Z,16.43
2018-11-02T14:10:53.166Z,14.53
2018-11-02T14:13:21.500Z,16.67
2018-11-02T14:15:49.066Z,19.57
2018-11-02T14:18:16.691Z,19.50
2018-11-02T14:20:44.236Z,21.30
2018-11-02T14:23:11.805Z,18.87
2018-11-02T14:25:39.452Z,21.83
2018-11-02T14:28:07.015Z,23.83
2018-11-02T14:30:35.347Z,19.30
2018-11-02T14:33:02.948Z,20.67
2018-11-02T14:35:31.284Z,25.20
2018-11-02T14:37:58.846Z,22.07
2018-11-02T14:40:26.483Z,19.97
2018-11-02T14:42:54.058Z,28.43
2018-11-02T14:45:21.631Z,19.60
2018-11-02T14:47:49.243Z,16.87
2018-11-02T14:50:16.818Z,19.70
2018-11-02T14:52:44.393Z,18.53
2018-11-02T14:55:11.985Z,24.37
2018-11-02T14:57:39.549Z,15.90
2018-11-02T15:00:07.166Z,41.72
2018-11-02T15:02:34.727Z,25.37
2018-11-02T15:05:02.288Z,26.67
2018-11-02T15:07:30.807Z,55.07
2018-11-02T15:09:58.366Z,18.80
2018-11-02T15:12:25.927Z,80.50
2018-11-02T15:14:53.564Z,31.67
2018-11-02T15:17:21.126Z,23.07
2018-11-02T15:19:48.686Z,23.00
2018-11-02T15:22:16.278Z,17.50
2018-11-02T15:24:43.840Z,18.97
2018-11-02T15:27:11.445Z,18.23
2018-11-02T15:29:39.782Z,17.83
2018-11-02T15:32:07.351Z,18.60
2018-11-02T15:34:35.024Z,22.27
2018-11-02T15:37:02.550Z,20.07
2018-11-02T15:39:30.112Z,22.50
2018-11-02T15:41:58.327Z,19.00
2018-11-02T15:44:25.953Z,18.77
2018-11-02T15:46:53.445Z,18.43
2018-11-02T15:49:21.062Z,19.87
2018-11-02T15:51:48.946Z,22.83
2018-11-02T15:54:16.502Z,22.87
2018-11-02T15:56:44.088Z,20.77
2018-11-02T15:59:11.657Z,16.50
2018-11-02T16:01:39.262Z,19.20
2018-11-02T16:04:06.827Z,17.37
2018-11-02T16:06:34.395Z,23.33
2018-11-02T16:09:02.001Z,21.63
2018-11-02T16:11:29.568Z,20.17
2018-11-02T16:13:57.140Z,22.40
2018-11-02T16:16:25.988Z,18.27
2018-11-02T16:18:53.549Z,18.17
2018-11-02T16:21:21.122Z,20.93
2018-11-02T16:23:48.719Z,20.23
2018-11-02T16:26:17.091Z,24.23
2018-11-02T16:28:45.229Z,18.07
2018-11-02T16:31:12.786Z,20.10
2018-11-02T16:33:40.356Z,22.50
2018-11-02T16:36:08.779Z,20.37
2018-11-02T16:38:37.111Z,17.37
2018-11-02T16:41:04.689Z,18.33
2018-11-02T16:43:32.303Z,21.97
2018-11-02T16:46:00.613Z,22.87
2018-11-02T16:48:28.950Z,18.63
2018-11-02T16:50:57.277Z,18.13
2018-11-02T16:53:24.846Z,18.70
2018-11-02T16:55:52.910Z,15.40
2018-11-02T16:58:20.494Z,24.37
2018-11-02T17:00:48.038Z,18.77
2018-11-02T17:03:15.613Z,16.07
2018-11-02T17:05:43.229Z,17.63
2018-11-02T17:08:10.994Z,20.83
2018-11-02T17:10:39.301Z,16.87
2018-11-02T17:13:06.868Z,14.93
2018-11-02T17:15:35.452Z,17.10
2018-11-02T17:18:03.045Z,20.53
2018-11-02T17:20:30.578Z,16.00
2018-11-02T17:22:58.166Z,21.27
2018-11-02T17:25:25.720Z,21.50
2018-11-02T17:27:53.871Z,18.60
2018-11-02T17:30:21.731Z,17.60
2018-11-02T17:32:49.290Z,20.03
2018-11-02T17:35:16.922Z,22.50
2018-11-02T17:37:45.230Z,21.53
2018-11-02T17:40:12.887Z,17.17
2018-11-02T17:42:40.493Z,21.90
2018-11-02T17:45:08.047Z,20.17
2018-11-02T17:47:35.640Z,20.70
2018-11-02T17:50:03.214Z,24.30
2018-11-02T17:52:30.789Z,28.55
2018-11-02T17:54:58.340Z,23.40
2018-11-02T17:57:26.413Z,23.33
2018-11-02T17:59:53.980Z,22.53
2018-11-02T18:02:21.535Z,21.77
2018-11-02T18:04:49.425Z,17.07
2018-11-02T18:07:16.981Z,20.43
2018-11-02T18:09:44.539Z,111.27
2018-11-02T18:12:12.206Z,145.77
2018-11-02T18:14:39.826Z,205.07
2018-11-02T18:17:08.049Z,64.07
2018-11-02T18:19:35.668Z,179.23
2018-11-02T18:22:03.621Z,129.73
2018-11-02T18:24:31.265Z,97.43
2018-11-02T18:26:59.220Z,58.57
2018-11-02T18:29:26.788Z,173.73
2018-11-02T18:31:54.352Z,105.73
2018-11-02T18:34:21.944Z,269.07
2018-11-02T18:36:50.279Z,168.43
2018-11-02T18:39:17.885Z,121.43
2018-11-02T18:41:45.446Z,84.13
2018-11-02T18:44:13.769Z,29.03
2018-11-02T18:46:41.369Z,34.87
2018-11-02T18:49:08.930Z,28.27
2018-11-02T18:51:36.502Z,23.57
2018-11-02T18:54:04.088Z,33.78
2018-11-02T18:56:31.651Z,29.33
2018-11-02T18:59:00.490Z,85.47
2018-11-02T19:01:28.049Z,45.43
2018-11-02T19:03:55.615Z,57.87
2018-11-02T19:06:23.381Z,64.57
2018-11-02T19:08:50.925Z,120.72
2018-11-02T19:11:18.505Z,309.73
2018-11-02T19:13:46.149Z,342.47
2018-11-02T19:16:13.718Z,384.87
2018-11-02T19:18:41.280Z,279.03
2018-11-02T19:21:09.288Z,282.77
2018-11-02T19:23:36.823Z,229.60
2018-11-02T19:26:04.384Z,228.90
2018-11-02T19:28:31.996Z,217.43
2018-11-02T19:30:59.557Z,154.43
2018-11-02T19:33:27.373Z,229.90
2018-11-02T19:35:55.061Z,242.50
2018-11-02T19:38:22.558Z,96.37
2018-11-02T19:40:50.113Z,181.03
2018-11-02T19:43:17.803Z,209.90
2018-11-02T19:45:45.396Z,137.43
2018-11-02T19:48:12.923Z,155.70
2018-11-02T19:50:40.717Z,155.03
2018-11-02T19:53:08.153Z,53.93
2018-11-02T19:55:35.720Z,67.40
2018-11-02T19:58:03.325Z,132.70
2018-11-02T20:00:31.687Z,138.70
2018-11-02T20:02:59.256Z,121.80
2018-11-02T20:05:27.189Z,69.73
2018-11-02T20:07:54.755Z,107.90
2018-11-02T20:10:22.315Z,92.20
2018-11-02T20:12:49.902Z,210.80
2018-11-02T20:15:18.048Z,128.87
2018-11-02T20:17:45.735Z,88.72
2018-11-02T20:20:13.233Z,138.13
2018-11-02T20:22:40.800Z,145.57
2018-11-02T20:25:09.319Z,127.07
2018-11-02T20:27:36.892Z,193.80
2018-11-02T20:30:04.456Z,197.30
2018-11-02T20:32:32.211Z,196.13
2018-11-02T20:34:59.637Z,172.87
2018-11-02T20:37:27.199Z,236.90
2018-11-02T20:39:55.201Z,169.73
2018-11-02T20:42:22.762Z,196.33
2018-11-02T20:44:50.327Z,205.73
2018-11-02T20:47:17.932Z,245.30
2018-11-02T20:49:46.274Z,244.17
2018-11-02T20:52:13.834Z,253.40
2018-11-02T20:54:41.558Z,289.60
2018-11-02T20:57:09.119Z,427.13
2018-11-02T20:59:36.678Z,319.17
2018-11-02T21:02:05.198Z,387.63
2018-11-02T21:04:32.750Z,325.67
2018-11-02T21:07:00.318Z,344.43
2018-11-02T21:09:28.116Z,365.20
2018-11-02T21:11:55.499Z,238.77
2018-11-02T21:14:23.121Z,292.13
2018-11-02T21:16:50.706Z,188.47
2018-11-02T21:19:18.228Z,234.03
2018-11-02T21:21:46.617Z,272.17
2018-11-02T21:24:14.171Z,270.33
2018-11-02T21:26:41.741Z,211.03
2018-11-02T21:29:09.322Z,263.53
2018-11-02T21:31:36.879Z,119.03
2018-11-02T21:34:04.531Z,122.80
2018-11-02T21:36:32.059Z,118.40
2018-11-02T21:38:59.614Z,212.87
2018-11-02T21:41:27.263Z,164.57
2018-11-02T21:43:54.811Z,216.90
2018-11-02T21:46:22.371Z,186.33
2018-11-02T21:48:49.960Z,191.97
2018-11-02T21:51:17.524Z,256.73
2018-11-02T21:53:45.097Z,185.63
2018-11-02T21:56:12.697Z,194.63
2018-11-02T21:58:40.282Z,180.40
2018-11-02T22:01:07.825Z,235.70
2018-11-02T22:03:35.410Z,181.83
2018-11-02T22:06:03.046Z,285.57
2018-11-02T22:08:30.593Z,333.23
2018-11-02T22:10:58.164Z,359.60
2018-11-02T22:13:25.725Z,354.03
2018-11-02T22:15:53.336Z,382.60
2018-11-02T22:18:20.893Z,355.07
2018-11-02T22:20:48.456Z,303.10
2018-11-02T22:23:16.056Z,367.53
2018-11-02T22:25:43.622Z,314.73
2018-11-02T22:28:11.185Z,281.27
2018-11-02T22:30:38.805Z,201.93
2018-11-02T22:33:07.107Z,174.67
2018-11-02T22:35:34.667Z,184.17
2018-11-02T22:38:02.330Z,105.57
2018-11-02T22:40:29.851Z,97.03
2018-11-02T22:42:57.412Z,176.93
2018-11-02T22:45:25.008Z,155.10
2018-11-02T22:47:52.563Z,197.37
2018-11-02T22:50:20.197Z,207.60
2018-11-02T22:52:47.780Z,215.53
2018-11-02T22:55:15.346Z,292.07
2018-11-02T22:57:42.940Z,196.07
2018-11-02T23:00:10.507Z,219.20
2018-11-02T23:02:38.066Z,257.00
2018-11-02T23:05:05.671Z,273.40
2018-11-02T23:07:33.247Z,291.93
2018-11-02T23:10:00.823Z,269.73
2018-11-02T23:12:28.445Z,222.90
2018-11-02T23:14:56.007Z,219.37
2018-11-02T23:17:23.570Z,153.80
2018-11-02T23:19:51.161Z,135.90
2018-11-02T23:22:19.342Z,137.03
2018-11-02T23:24:46.909Z,163.23
2018-11-02T23:27:14.473Z,237.07
2018-11-02T23:29:42.154Z,262.10
2018-11-02T23:32:09.635Z,182.53
2018-11-02T23:34:37.964Z,240.70
2018-11-02T23:37:05.547Z,252.97
2018-11-02T23:39:33.165Z,235.50
2018-11-02T23:42:00.726Z,177.40
2018-11-02T23:44:28.286Z,333.33
2018-11-02T23:46:55.883Z,301.40
2018-11-02T23:49:23.453Z,325.23
2018-11-02T23:51:51.021Z,257.33
2018-11-02T23:54:18.617Z,199.47
2018-11-02T23:56:46.187Z,510.23
2018-11-02T23:59:13.754Z,386.43
